Stanley, ID

10:30 MDT le 02 octobre 2014 (GMT -0600)
Stanley | Change Station
CLOSE
Current Station
Aéroport
Location: Stanley,
Altitude: 6496 ft
Stations météo à proximité

Alt. 6496 ft 44.17 °N, 114.93 °W | Updated 39 minutes ago

Couvert
Couvert
35 ° F
Paraît 35 ° F
N
0
Vent Variable Vent de Nord
Gusts 16 mph

Aujourd'hui
Haut(e) -- | Bas -- ° F
--% Risque de précip.
Hier
Haut(e) -- | Bas -- ° F
Precip. -- pouce
7:38 AM 7:18 PM
Premier quartier, 60% visible
Pression 30.22 pouce
Visibilité -9999.0 Miles terrestres
Nuages
Point de rosée 28 ° F
Humidité 76%
Précipitations 0.00 pouce
Profondeur de la couche neigeuse 0 in , 1 in , 1 in
UV Non disponible.
Pollen 7.50 sur 12
Qualité de l'air Non disponible.
Flu Activity Non disponible.
METAR KSNT 021551Z AUTO 00000KT 02/M02 A3026 RMK AO1 SLP231 T00171022

More Conditions Fewer Conditions

Pression 30.22 pouce
Visibilité -9999.0 Miles terrestres
Nuages
Point de rosée 28 ° F
Humidité 76%
Précipitations 0.00 pouce
Profondeur de la couche neigeuse 0 in , 1 in , 1 in
UV Non disponible.
Pollen 7.50 sur 12
Qualité de l'air Non disponible.
Flu Activity Non disponible.
METAR KSNT 021551Z AUTO 00000KT 02/M02 A3026 RMK AO1 SLP231 T00171022

More Conditions Fewer Conditions

10-Day Weather Forecast

Almanac

Astronomie

Oct. 02, 2014 Lever Coucher
Temps réel 07:38 MDT 19:18 MDT
Crépuscule civil 07:09 MDT 19:47 MDT
Crépuscule nautique 06:36 MDT 20:20 MDT
Crépuscule astronomique 06:02 MDT 20:54 MDT
Lune 15:39 MDT 00:47 MDT
Durée de lumière visible 12h 37m
Longueur du jour
11h 39m
Tomorrow will be 3m 2s shorter.
Premier quartier, 60% of the Moon is Illuminated
Aujourd'hui
Premier quartier
Oct 8
Pleine lune
Oct 15
Dernier quartier
Oct 23
Nouveau
Oct 30
Premier quartier

Extrêmes aujourd'hui

State Highs State Lows

Community

WunderPhotos

Upload Photos

1,758,294 Photos téléchargées !

WunderBlogs® & News

Nearby

Épaisseur de neige

Station Depth Altitude
Lost Lake 0 in 6110 ft
Mud Flat 1 in 5730 ft
South Mountain 1 in 6500 ft
Moscow Mountain 1 in 4700 ft
Oxford Spring 0 in 6740 ft

Activité sismique

Ville Distance Mag. Time & Date
No recent earthquake activity has been reported nearby.
Minimum magnitude displayed is 2.5.

Températures des eaux côtières

Lieu Température
Aucun rapport de station

Stations météo à proximité